sensor_id;sensor_type;location;lat;lon;timestamp;P1;durP1;ratioP1;P2;durP2;ratioP2
24409;SDS011;12543;53.364;-1.504;2022-11-20T00:01:17;27.80;;;19.67;;
24409;SDS011;12543;53.364;-1.504;2022-11-20T00:03:46;29.60;;;19.23;;
24409;SDS011;12543;53.364;-1.504;2022-11-20T00:06:15;29.90;;;18.90;;
24409;SDS011;12543;53.364;-1.504;2022-11-20T00:08:43;28.58;;;20.17;;
24409;SDS011;12543;53.364;-1.504;2022-11-20T00:11:11;28.83;;;18.80;;
24409;SDS011;12543;53.364;-1.504;2022-11-20T00:13:45;30.85;;;21.35;;
24409;SDS011;12543;53.364;-1.504;2022-11-20T00:16:15;32.85;;;21.67;;
24409;SDS011;12543;53.364;-1.504;2022-11-20T00:18:44;31.23;;;21.63;;
24409;SDS011;12543;53.364;-1.504;2022-11-20T00:21:13;32.63;;;21.63;;
24409;SDS011;12543;53.364;-1.504;2022-11-20T00:23:42;24.42;;;18.75;;
24409;SDS011;12543;53.364;-1.504;2022-11-20T00:26:10;27.17;;;19.55;;
24409;SDS011;12543;53.364;-1.504;2022-11-20T00:28:39;25.65;;;18.85;;
24409;SDS011;12543;53.364;-1.504;2022-11-20T00:31:11;24.00;;;18.23;;
24409;SDS011;12543;53.364;-1.504;2022-11-20T00:33:40;28.45;;;19.88;;
24409;SDS011;12543;53.364;-1.504;2022-11-20T00:36:09;27.80;;;19.88;;
24409;SDS011;12543;53.364;-1.504;2022-11-20T00:38:41;31.55;;;20.63;;
24409;SDS011;12543;53.364;-1.504;2022-11-20T00:41:10;31.75;;;21.13;;
24409;SDS011;12543;53.364;-1.504;2022-11-20T00:43:41;27.00;;;19.88;;
24409;SDS011;12543;53.364;-1.504;2022-11-20T00:46:18;29.63;;;20.40;;
24409;SDS011;12543;53.364;-1.504;2022-11-20T00:48:46;24.50;;;17.52;;
24409;SDS011;12543;53.364;-1.504;2022-11-20T00:51:14;23.55;;;17.55;;
24409;SDS011;12543;53.364;-1.504;2022-11-20T00:53:43;25.70;;;17.33;;
24409;SDS011;12543;53.364;-1.504;2022-11-20T00:56:12;24.13;;;18.30;;
24409;SDS011;12543;53.364;-1.504;2022-11-20T00:58:41;26.20;;;18.45;;
24409;SDS011;12543;53.364;-1.504;2022-11-20T01:01:10;23.20;;;16.52;;
24409;SDS011;12543;53.364;-1.504;2022-11-20T01:03:42;20.83;;;15.65;;
24409;SDS011;12543;53.364;-1.504;2022-11-20T01:06:12;22.80;;;16.23;;
24409;SDS011;12543;53.364;-1.504;2022-11-20T01:08:40;22.00;;;15.75;;
24409;SDS011;12543;53.364;-1.504;2022-11-20T01:11:13;24.48;;;17.60;;
24409;SDS011;12543;53.364;-1.504;2022-11-20T01:13:42;23.40;;;16.88;;
24409;SDS011;12543;53.364;-1.504;2022-11-20T01:16:15;23.90;;;17.85;;
24409;SDS011;12543;53.364;-1.504;2022-11-20T01:18:44;29.33;;;19.60;;
24409;SDS011;12543;53.364;-1.504;2022-11-20T01:21:15;27.73;;;18.55;;
24409;SDS011;12543;53.364;-1.504;2022-11-20T01:23:44;23.63;;;17.45;;
24409;SDS011;12543;53.364;-1.504;2022-11-20T01:26:13;22.13;;;16.70;;
24409;SDS011;12543;53.364;-1.504;2022-11-20T01:28:42;22.88;;;16.88;;
24409;SDS011;12543;53.364;-1.504;2022-11-20T01:31:32;24.27;;;17.23;;
24409;SDS011;12543;53.364;-1.504;2022-11-20T01:34:02;27.02;;;17.52;;
24409;SDS011;12543;53.364;-1.504;2022-11-20T01:36:34;21.77;;;15.77;;
24409;SDS011;12543;53.364;-1.504;2022-11-20T01:39:04;26.33;;;18.77;;
24409;SDS011;12543;53.364;-1.504;2022-11-20T01:41:36;23.73;;;17.10;;
24409;SDS011;12543;53.364;-1.504;2022-11-20T01:44:22;24.05;;;16.20;;
24409;SDS011;12543;53.364;-1.504;2022-11-20T01:47:09;21.90;;;16.33;;
24409;SDS011;12543;53.364;-1.504;2022-11-20T01:49:42;23.70;;;17.05;;
24409;SDS011;12543;53.364;-1.504;2022-11-20T01:55:16;29.00;;;20.48;;
24409;SDS011;12543;53.364;-1.504;2022-11-20T01:57:47;30.42;;;20.17;;
24409;SDS011;12543;53.364;-1.504;2022-11-20T02:00:16;26.38;;;19.67;;
24409;SDS011;12543;53.364;-1.504;2022-11-20T02:02:49;27.95;;;19.10;;
24409;SDS011;12543;53.364;-1.504;2022-11-20T02:07:59;25.20;;;18.05;;
24409;SDS011;12543;53.364;-1.504;2022-11-20T02:10:27;24.13;;;16.48;;
24409;SDS011;12543;53.364;-1.504;2022-11-20T02:12:55;29.63;;;17.35;;
24409;SDS011;12543;53.364;-1.504;2022-11-20T02:15:42;26.65;;;18.17;;
24409;SDS011;12543;53.364;-1.504;2022-11-20T02:18:10;26.50;;;18.58;;
24409;SDS011;12543;53.364;-1.504;2022-11-20T02:20:38;26.98;;;18.85;;
24409;SDS011;12543;53.364;-1.504;2022-11-20T02:25:38;25.92;;;17.92;;
24409;SDS011;12543;53.364;-1.504;2022-11-20T02:28:07;25.00;;;17.52;;
24409;SDS011;12543;53.364;-1.504;2022-11-20T02:30:34;25.85;;;17.13;;
24409;SDS011;12543;53.364;-1.504;2022-11-20T02:33:01;25.80;;;17.05;;
24409;SDS011;12543;53.364;-1.504;2022-11-20T02:37:59;26.48;;;16.50;;
24409;SDS011;12543;53.364;-1.504;2022-11-20T02:40:29;23.77;;;16.33;;
24409;SDS011;12543;53.364;-1.504;2022-11-20T02:42:56;20.95;;;15.02;;
24409;SDS011;12543;53.364;-1.504;2022-11-20T02:45:23;17.70;;;13.38;;
24409;SDS011;12543;53.364;-1.504;2022-11-20T02:47:51;19.63;;;13.80;;
24409;SDS011;12543;53.364;-1.504;2022-11-20T02:50:18;15.95;;;12.65;;
24409;SDS011;12543;53.364;-1.504;2022-11-20T02:52:45;19.70;;;13.48;;
24409;SDS011;12543;53.364;-1.504;2022-11-20T02:55:12;18.80;;;13.30;;
24409;SDS011;12543;53.364;-1.504;2022-11-20T02:57:39;21.52;;;14.05;;
24409;SDS011;12543;53.364;-1.504;2022-11-20T03:00:06;20.67;;;13.82;;
24409;SDS011;12543;53.364;-1.504;2022-11-20T03:02:34;22.23;;;14.03;;
24409;SDS011;12543;53.364;-1.504;2022-11-20T03:05:01;19.60;;;12.75;;
24409;SDS011;12543;53.364;-1.504;2022-11-20T03:07:29;16.63;;;11.45;;
24409;SDS011;12543;53.364;-1.504;2022-11-20T03:09:56;22.33;;;12.93;;
24409;SDS011;12543;53.364;-1.504;2022-11-20T03:12:23;18.60;;;13.15;;
24409;SDS011;12543;53.364;-1.504;2022-11-20T03:14:50;16.27;;;11.57;;
24409;SDS011;12543;53.364;-1.504;2022-11-20T03:17:18;16.13;;;11.13;;
24409;SDS011;12543;53.364;-1.504;2022-11-20T03:19:45;20.45;;;12.57;;
24409;SDS011;12543;53.364;-1.504;2022-11-20T03:22:13;20.17;;;12.35;;
24409;SDS011;12543;53.364;-1.504;2022-11-20T03:24:40;17.15;;;11.90;;
24409;SDS011;12543;53.364;-1.504;2022-11-20T03:27:06;17.65;;;11.77;;
24409;SDS011;12543;53.364;-1.504;2022-11-20T03:29:34;20.10;;;11.73;;
24409;SDS011;12543;53.364;-1.504;2022-11-20T03:32:01;23.13;;;12.40;;
24409;SDS011;12543;53.364;-1.504;2022-11-20T03:34:29;16.27;;;10.70;;
24409;SDS011;12543;53.364;-1.504;2022-11-20T03:36:56;17.05;;;10.35;;
24409;SDS011;12543;53.364;-1.504;2022-11-20T03:39:23;18.00;;;11.60;;
24409;SDS011;12543;53.364;-1.504;2022-11-20T03:41:50;17.75;;;11.05;;
24409;SDS011;12543;53.364;-1.504;2022-11-20T03:44:17;16.38;;;11.07;;
24409;SDS011;12543;53.364;-1.504;2022-11-20T03:46:47;16.00;;;10.68;;
24409;SDS011;12543;53.364;-1.504;2022-11-20T03:49:14;16.15;;;10.13;;
24409;SDS011;12543;53.364;-1.504;2022-11-20T03:51:41;15.02;;;9.77;;
24409;SDS011;12543;53.364;-1.504;2022-11-20T03:54:08;16.00;;;10.10;;
24409;SDS011;12543;53.364;-1.504;2022-11-20T03:56:36;12.50;;;8.90;;
24409;SDS011;12543;53.364;-1.504;2022-11-20T03:59:04;13.05;;;8.52;;
24409;SDS011;12543;53.364;-1.504;2022-11-20T04:01:33;12.23;;;8.05;;
24409;SDS011;12543;53.364;-1.504;2022-11-20T04:04:03;12.57;;;7.85;;
24409;SDS011;12543;53.364;-1.504;2022-11-20T04:06:34;14.95;;;8.57;;
24409;SDS011;12543;53.364;-1.504;2022-11-20T04:09:02;10.23;;;7.18;;
24409;SDS011;12543;53.364;-1.504;2022-11-20T04:11:30;9.63;;;6.95;;
24409;SDS011;12543;53.364;-1.504;2022-11-20T04:14:00;11.73;;;7.93;;
24409;SDS011;12543;53.364;-1.504;2022-11-20T04:16:30;9.88;;;7.45;;
24409;SDS011;12543;53.364;-1.504;2022-11-20T04:18:59;12.52;;;7.50;;
24409;SDS011;12543;53.364;-1.504;2022-11-20T04:21:27;9.98;;;6.43;;
24409;SDS011;12543;53.364;-1.504;2022-11-20T04:23:55;6.60;;;5.60;;
24409;SDS011;12543;53.364;-1.504;2022-11-20T04:26:23;7.75;;;5.63;;
24409;SDS011;12543;53.364;-1.504;2022-11-20T04:28:53;7.18;;;5.43;;
24409;SDS011;12543;53.364;-1.504;2022-11-20T04:31:24;6.28;;;4.88;;
24409;SDS011;12543;53.364;-1.504;2022-11-20T04:33:53;7.93;;;5.20;;
24409;SDS011;12543;53.364;-1.504;2022-11-20T04:36:21;5.50;;;4.55;;
24409;SDS011;12543;53.364;-1.504;2022-11-20T04:38:51;8.43;;;5.63;;
24409;SDS011;12543;53.364;-1.504;2022-11-20T04:41:23;7.30;;;4.95;;
24409;SDS011;12543;53.364;-1.504;2022-11-20T04:43:52;8.05;;;5.70;;
24409;SDS011;12543;53.364;-1.504;2022-11-20T04:46:26;7.22;;;5.43;;
24409;SDS011;12543;53.364;-1.504;2022-11-20T04:48:53;7.07;;;4.93;;
24409;SDS011;12543;53.364;-1.504;2022-11-20T04:51:20;6.63;;;4.78;;
24409;SDS011;12543;53.364;-1.504;2022-11-20T04:53:47;5.82;;;3.92;;
24409;SDS011;12543;53.364;-1.504;2022-11-20T04:56:14;5.47;;;4.18;;
24409;SDS011;12543;53.364;-1.504;2022-11-20T04:58:42;4.80;;;3.97;;
24409;SDS011;12543;53.364;-1.504;2022-11-20T05:01:27;4.97;;;3.60;;
24409;SDS011;12543;53.364;-1.504;2022-11-20T05:03:54;5.75;;;4.05;;
24409;SDS011;12543;53.364;-1.504;2022-11-20T05:06:22;5.30;;;4.30;;
24409;SDS011;12543;53.364;-1.504;2022-11-20T05:08:49;3.65;;;3.20;;
24409;SDS011;12543;53.364;-1.504;2022-11-20T05:11:17;4.13;;;3.63;;
24409;SDS011;12543;53.364;-1.504;2022-11-20T05:13:47;3.95;;;3.55;;
24409;SDS011;12543;53.364;-1.504;2022-11-20T05:16:15;4.28;;;3.22;;
24409;SDS011;12543;53.364;-1.504;2022-11-20T05:18:51;4.03;;;3.47;;
24409;SDS011;12543;53.364;-1.504;2022-11-20T05:21:19;3.08;;;2.78;;
24409;SDS011;12543;53.364;-1.504;2022-11-20T05:23:46;3.17;;;2.88;;
24409;SDS011;12543;53.364;-1.504;2022-11-20T05:26:20;2.95;;;2.75;;
24409;SDS011;12543;53.364;-1.504;2022-11-20T05:28:48;3.00;;;2.60;;
24409;SDS011;12543;53.364;-1.504;2022-11-20T05:31:20;2.97;;;2.75;;
24409;SDS011;12543;53.364;-1.504;2022-11-20T05:33:53;2.60;;;2.40;;
24409;SDS011;12543;53.364;-1.504;2022-11-20T05:36:21;3.28;;;2.60;;
24409;SDS011;12543;53.364;-1.504;2022-11-20T05:38:48;2.85;;;2.33;;
24409;SDS011;12543;53.364;-1.504;2022-11-20T05:43:45;2.30;;;2.10;;
24409;SDS011;12543;53.364;-1.504;2022-11-20T05:46:15;2.38;;;1.85;;
24409;SDS011;12543;53.364;-1.504;2022-11-20T05:48:48;1.70;;;1.60;;
24409;SDS011;12543;53.364;-1.504;2022-11-20T05:51:16;1.40;;;1.30;;
24409;SDS011;12543;53.364;-1.504;2022-11-20T05:53:45;1.02;;;0.90;;
24409;SDS011;12543;53.364;-1.504;2022-11-20T05:56:18;0.88;;;0.88;;
24409;SDS011;12543;53.364;-1.504;2022-11-20T05:58:47;1.75;;;0.80;;
24409;SDS011;12543;53.364;-1.504;2022-11-20T06:01:16;0.70;;;0.70;;
24409;SDS011;12543;53.364;-1.504;2022-11-20T06:03:45;0.70;;;0.70;;
24409;SDS011;12543;53.364;-1.504;2022-11-20T06:06:14;0.73;;;0.73;;
24409;SDS011;12543;53.364;-1.504;2022-11-20T06:08:42;0.65;;;0.50;;
24409;SDS011;12543;53.364;-1.504;2022-11-20T06:11:10;0.60;;;0.57;;
24409;SDS011;12543;53.364;-1.504;2022-11-20T06:13:39;0.47;;;0.47;;
24409;SDS011;12543;53.364;-1.504;2022-11-20T06:16:08;0.70;;;0.50;;
24409;SDS011;12543;53.364;-1.504;2022-11-20T06:18:36;0.60;;;0.60;;
24409;SDS011;12543;53.364;-1.504;2022-11-20T06:21:05;1.23;;;0.60;;
24409;SDS011;12543;53.364;-1.504;2022-11-20T06:23:33;0.70;;;0.70;;
24409;SDS011;12543;53.364;-1.504;2022-11-20T06:26:06;0.70;;;0.70;;
24409;SDS011;12543;53.364;-1.504;2022-11-20T06:28:34;1.08;;;0.90;;
24409;SDS011;12543;53.364;-1.504;2022-11-20T06:31:01;0.95;;;0.95;;
24409;SDS011;12543;53.364;-1.504;2022-11-20T06:33:28;0.80;;;0.80;;
24409;SDS011;12543;53.364;-1.504;2022-11-20T06:35:57;0.85;;;0.73;;
24409;SDS011;12543;53.364;-1.504;2022-11-20T06:38:28;0.80;;;0.80;;
24409;SDS011;12543;53.364;-1.504;2022-11-20T06:40:56;1.10;;;1.00;;
24409;SDS011;12543;53.364;-1.504;2022-11-20T06:43:23;0.90;;;0.90;;
24409;SDS011;12543;53.364;-1.504;2022-11-20T06:45:55;0.90;;;0.90;;
24409;SDS011;12543;53.364;-1.504;2022-11-20T06:48:24;0.82;;;0.82;;
24409;SDS011;12543;53.364;-1.504;2022-11-20T06:50:53;1.38;;;0.90;;
24409;SDS011;12543;53.364;-1.504;2022-11-20T06:53:21;1.55;;;0.90;;
24409;SDS011;12543;53.364;-1.504;2022-11-20T06:55:48;1.13;;;1.03;;
24409;SDS011;12543;53.364;-1.504;2022-11-20T06:58:15;1.13;;;1.02;;
24409;SDS011;12543;53.364;-1.504;2022-11-20T07:00:43;1.52;;;0.90;;
24409;SDS011;12543;53.364;-1.504;2022-11-20T07:03:11;1.30;;;1.20;;
24409;SDS011;12543;53.364;-1.504;2022-11-20T07:05:38;2.13;;;1.00;;
24409;SDS011;12543;53.364;-1.504;2022-11-20T07:08:06;0.80;;;0.80;;
24409;SDS011;12543;53.364;-1.504;2022-11-20T07:10:33;1.60;;;1.05;;
24409;SDS011;12543;53.364;-1.504;2022-11-20T07:13:01;0.88;;;0.70;;
24409;SDS011;12543;53.364;-1.504;2022-11-20T07:15:28;1.00;;;1.00;;
24409;SDS011;12543;53.364;-1.504;2022-11-20T07:17:55;1.00;;;0.90;;
24409;SDS011;12543;53.364;-1.504;2022-11-20T07:20:24;1.10;;;1.00;;
24409;SDS011;12543;53.364;-1.504;2022-11-20T07:22:55;1.52;;;1.25;;
24409;SDS011;12543;53.364;-1.504;2022-11-20T07:25:23;1.38;;;1.27;;
24409;SDS011;12543;53.364;-1.504;2022-11-20T07:27:50;1.63;;;1.30;;
24409;SDS011;12543;53.364;-1.504;2022-11-20T07:30:18;1.35;;;1.25;;
24409;SDS011;12543;53.364;-1.504;2022-11-20T07:32:52;3.63;;;1.20;;
24409;SDS011;12543;53.364;-1.504;2022-11-20T07:35:19;3.45;;;1.33;;
24409;SDS011;12543;53.364;-1.504;2022-11-20T07:37:46;2.03;;;1.15;;
24409;SDS011;12543;53.364;-1.504;2022-11-20T07:40:15;1.13;;;1.02;;
24409;SDS011;12543;53.364;-1.504;2022-11-20T07:42:49;1.63;;;1.20;;
24409;SDS011;12543;53.364;-1.504;2022-11-20T07:45:17;1.38;;;0.95;;
24409;SDS011;12543;53.364;-1.504;2022-11-20T07:47:44;1.95;;;1.10;;
24409;SDS011;12543;53.364;-1.504;2022-11-20T07:50:12;1.50;;;1.38;;
24409;SDS011;12543;53.364;-1.504;2022-11-20T07:52:40;1.17;;;1.05;;
24409;SDS011;12543;53.364;-1.504;2022-11-20T07:55:07;3.28;;;1.33;;
24409;SDS011;12543;53.364;-1.504;2022-11-20T07:57:35;4.13;;;1.50;;
24409;SDS011;12543;53.364;-1.504;2022-11-20T08:00:02;1.83;;;1.50;;
24409;SDS011;12543;53.364;-1.504;2022-11-20T08:02:40;2.40;;;1.35;;
24409;SDS011;12543;53.364;-1.504;2022-11-20T08:05:08;1.92;;;1.42;;
24409;SDS011;12543;53.364;-1.504;2022-11-20T08:07:36;1.42;;;1.30;;
24409;SDS011;12543;53.364;-1.504;2022-11-20T08:10:05;2.38;;;1.50;;
24409;SDS011;12543;53.364;-1.504;2022-11-20T08:12:33;4.50;;;2.22;;
24409;SDS011;12543;53.364;-1.504;2022-11-20T08:15:19;6.40;;;2.80;;
24409;SDS011;12543;53.364;-1.504;2022-11-20T08:17:46;6.03;;;3.05;;
24409;SDS011;12543;53.364;-1.504;2022-11-20T08:20:33;4.03;;;2.35;;
24409;SDS011;12543;53.364;-1.504;2022-11-20T08:23:02;3.33;;;2.17;;
24409;SDS011;12543;53.364;-1.504;2022-11-20T08:25:32;8.90;;;2.72;;
24409;SDS011;12543;53.364;-1.504;2022-11-20T08:28:01;6.20;;;2.30;;
24409;SDS011;12543;53.364;-1.504;2022-11-20T08:30:45;6.18;;;2.80;;
24409;SDS011;12543;53.364;-1.504;2022-11-20T08:33:12;7.65;;;3.00;;
24409;SDS011;12543;53.364;-1.504;2022-11-20T08:35:39;5.97;;;3.03;;
24409;SDS011;12543;53.364;-1.504;2022-11-20T08:38:08;5.63;;;2.70;;
24409;SDS011;12543;53.364;-1.504;2022-11-20T08:40:35;4.15;;;2.28;;
24409;SDS011;12543;53.364;-1.504;2022-11-20T08:43:02;4.30;;;2.20;;
24409;SDS011;12543;53.364;-1.504;2022-11-20T08:45:29;5.60;;;2.35;;
24409;SDS011;12543;53.364;-1.504;2022-11-20T08:48:01;3.20;;;1.88;;
24409;SDS011;12543;53.364;-1.504;2022-11-20T08:53:04;6.40;;;2.33;;
24409;SDS011;12543;53.364;-1.504;2022-11-20T08:55:32;4.00;;;2.13;;
24409;SDS011;12543;53.364;-1.504;2022-11-20T08:58:04;4.97;;;2.33;;
24409;SDS011;12543;53.364;-1.504;2022-11-20T09:00:32;4.45;;;2.08;;
24409;SDS011;12543;53.364;-1.504;2022-11-20T09:05:28;4.63;;;1.90;;
24409;SDS011;12543;53.364;-1.504;2022-11-20T09:07:58;4.88;;;2.10;;
24409;SDS011;12543;53.364;-1.504;2022-11-20T09:10:25;4.75;;;2.20;;
24409;SDS011;12543;53.364;-1.504;2022-11-20T09:12:53;6.07;;;2.00;;
24409;SDS011;12543;53.364;-1.504;2022-11-20T09:15:22;3.97;;;1.50;;
24409;SDS011;12543;53.364;-1.504;2022-11-20T09:17:51;3.88;;;1.80;;
24409;SDS011;12543;53.364;-1.504;2022-11-20T09:20:21;10.82;;;2.40;;
24409;SDS011;12543;53.364;-1.504;2022-11-20T09:22:48;8.20;;;2.42;;
24409;SDS011;12543;53.364;-1.504;2022-11-20T09:25:15;8.90;;;2.33;;
24409;SDS011;12543;53.364;-1.504;2022-11-20T09:27:42;7.47;;;2.35;;
24409;SDS011;12543;53.364;-1.504;2022-11-20T09:30:15;7.32;;;2.30;;
24409;SDS011;12543;53.364;-1.504;2022-11-20T09:32:42;8.82;;;2.17;;
24409;SDS011;12543;53.364;-1.504;2022-11-20T09:35:09;7.10;;;2.25;;
24409;SDS011;12543;53.364;-1.504;2022-11-20T09:37:37;10.55;;;2.45;;
24409;SDS011;12543;53.364;-1.504;2022-11-20T09:40:04;7.20;;;2.15;;
24409;SDS011;12543;53.364;-1.504;2022-11-20T09:48:18;6.10;;;2.78;;
24409;SDS011;12543;53.364;-1.504;2022-11-20T09:56:53;8.02;;;2.50;;
24409;SDS011;12543;53.364;-1.504;2022-11-20T10:01:53;11.73;;;2.92;;
24409;SDS011;12543;53.364;-1.504;2022-11-20T10:04:21;8.75;;;2.95;;
24409;SDS011;12543;53.364;-1.504;2022-11-20T10:07:13;11.37;;;3.50;;
24409;SDS011;12543;53.364;-1.504;2022-11-20T10:10:01;10.55;;;2.63;;
24409;SDS011;12543;53.364;-1.504;2022-11-20T10:12:34;8.00;;;2.95;;
24409;SDS011;12543;53.364;-1.504;2022-11-20T10:15:23;8.45;;;2.72;;
24409;SDS011;12543;53.364;-1.504;2022-11-20T10:20:51;8.98;;;2.58;;
24409;SDS011;12543;53.364;-1.504;2022-11-20T10:23:28;14.00;;;2.92;;
24409;SDS011;12543;53.364;-1.504;2022-11-20T10:26:01;7.45;;;2.50;;
24409;SDS011;12543;53.364;-1.504;2022-11-20T10:31:10;10.32;;;2.53;;
24409;SDS011;12543;53.364;-1.504;2022-11-20T10:33:42;12.38;;;2.80;;
24409;SDS011;12543;53.364;-1.504;2022-11-20T10:36:46;5.72;;;2.00;;
24409;SDS011;12543;53.364;-1.504;2022-11-20T10:39:21;6.28;;;2.20;;
24409;SDS011;12543;53.364;-1.504;2022-11-20T10:41:56;7.45;;;2.20;;
24409;SDS011;12543;53.364;-1.504;2022-11-20T10:44:27;7.93;;;2.35;;
24409;SDS011;12543;53.364;-1.504;2022-11-20T10:47:20;8.13;;;2.33;;
24409;SDS011;12543;53.364;-1.504;2022-11-20T10:49:49;8.35;;;2.25;;
24409;SDS011;12543;53.364;-1.504;2022-11-20T11:00:44;6.53;;;2.15;;
24409;SDS011;12543;53.364;-1.504;2022-11-20T11:03:22;8.98;;;2.35;;
24409;SDS011;12543;53.364;-1.504;2022-11-20T11:08:53;6.82;;;2.10;;
24409;SDS011;12543;53.364;-1.504;2022-11-20T11:11:29;7.80;;;2.00;;
24409;SDS011;12543;53.364;-1.504;2022-11-20T11:16:33;10.13;;;2.95;;
24409;SDS011;12543;53.364;-1.504;2022-11-20T11:19:04;7.90;;;2.90;;
24409;SDS011;12543;53.364;-1.504;2022-11-20T11:21:51;9.57;;;3.13;;
24409;SDS011;12543;53.364;-1.504;2022-11-20T11:24:25;9.02;;;2.58;;
24409;SDS011;12543;53.364;-1.504;2022-11-20T11:27:13;10.13;;;3.22;;
24409;SDS011;12543;53.364;-1.504;2022-11-20T11:29:44;8.05;;;3.08;;
24409;SDS011;12543;53.364;-1.504;2022-11-20T11:32:13;11.57;;;3.95;;
24409;SDS011;12543;53.364;-1.504;2022-11-20T11:34:42;12.32;;;3.70;;
24409;SDS011;12543;53.364;-1.504;2022-11-20T11:37:19;10.35;;;3.72;;
24409;SDS011;12543;53.364;-1.504;2022-11-20T11:39:50;11.38;;;3.55;;
24409;SDS011;12543;53.364;-1.504;2022-11-20T11:42:46;8.93;;;3.90;;
24409;SDS011;12543;53.364;-1.504;2022-11-20T11:45:20;7.28;;;3.35;;
24409;SDS011;12543;53.364;-1.504;2022-11-20T11:47:48;8.48;;;2.97;;
24409;SDS011;12543;53.364;-1.504;2022-11-20T11:50:19;8.20;;;3.33;;
24409;SDS011;12543;53.364;-1.504;2022-11-20T11:55:41;9.15;;;3.30;;
24409;SDS011;12543;53.364;-1.504;2022-11-20T12:01:03;8.13;;;2.67;;
24409;SDS011;12543;53.364;-1.504;2022-11-20T12:03:42;7.68;;;2.60;;
24409;SDS011;12543;53.364;-1.504;2022-11-20T12:06:19;10.35;;;2.83;;
24409;SDS011;12543;53.364;-1.504;2022-11-20T12:08:49;9.80;;;3.22;;
24409;SDS011;12543;53.364;-1.504;2022-11-20T12:11:20;6.43;;;2.38;;
24409;SDS011;12543;53.364;-1.504;2022-11-20T12:16:53;5.40;;;2.03;;
24409;SDS011;12543;53.364;-1.504;2022-11-20T12:19:21;5.97;;;2.15;;
24409;SDS011;12543;53.364;-1.504;2022-11-20T12:30:17;7.10;;;2.10;;
24409;SDS011;12543;53.364;-1.504;2022-11-20T12:46:52;7.85;;;2.45;;
24409;SDS011;12543;53.364;-1.504;2022-11-20T12:49:53;10.30;;;2.42;;
24409;SDS011;12543;53.364;-1.504;2022-11-20T12:52:45;5.78;;;1.92;;
24409;SDS011;12543;53.364;-1.504;2022-11-20T12:55:28;7.28;;;1.70;;
24409;SDS011;12543;53.364;-1.504;2022-11-20T13:00:50;10.68;;;2.35;;
24409;SDS011;12543;53.364;-1.504;2022-11-20T13:03:36;7.15;;;2.22;;
24409;SDS011;12543;53.364;-1.504;2022-11-20T13:06:18;10.55;;;2.20;;
24409;SDS011;12543;53.364;-1.504;2022-11-20T13:08:55;9.07;;;1.95;;
24409;SDS011;12543;53.364;-1.504;2022-11-20T13:11:43;9.73;;;1.90;;
24409;SDS011;12543;53.364;-1.504;2022-11-20T13:19:31;11.13;;;2.55;;
24409;SDS011;12543;53.364;-1.504;2022-11-20T13:21:59;7.32;;;2.38;;
24409;SDS011;12543;53.364;-1.504;2022-11-20T13:24:27;8.10;;;2.75;;
24409;SDS011;12543;53.364;-1.504;2022-11-20T13:27:46;5.75;;;2.50;;
24409;SDS011;12543;53.364;-1.504;2022-11-20T13:30:02;9.35;;;2.38;;
24409;SDS011;12543;53.364;-1.504;2022-11-20T13:32:48;9.02;;;2.15;;
24409;SDS011;12543;53.364;-1.504;2022-11-20T13:35:33;6.10;;;1.92;;
24409;SDS011;12543;53.364;-1.504;2022-11-20T13:38:02;5.32;;;1.70;;
24409;SDS011;12543;53.364;-1.504;2022-11-20T13:40:31;8.35;;;2.10;;
24409;SDS011;12543;53.364;-1.504;2022-11-20T13:45:56;7.90;;;2.00;;
24409;SDS011;12543;53.364;-1.504;2022-11-20T13:48:38;8.98;;;2.60;;
24409;SDS011;12543;53.364;-1.504;2022-11-20T13:51:20;11.93;;;2.85;;
24409;SDS011;12543;53.364;-1.504;2022-11-20T13:54:00;11.02;;;2.28;;
24409;SDS011;12543;53.364;-1.504;2022-11-20T14:02:02;6.80;;;1.90;;
24409;SDS011;12543;53.364;-1.504;2022-11-20T14:04:36;9.35;;;1.83;;
24409;SDS011;12543;53.364;-1.504;2022-11-20T14:07:07;6.10;;;2.03;;
24409;SDS011;12543;53.364;-1.504;2022-11-20T14:12:03;7.00;;;1.67;;
24409;SDS011;12543;53.364;-1.504;2022-11-20T14:14:47;7.53;;;1.85;;
24409;SDS011;12543;53.364;-1.504;2022-11-20T14:20:03;9.27;;;2.33;;
24409;SDS011;12543;53.364;-1.504;2022-11-20T14:22:33;9.07;;;1.98;;
24409;SDS011;12543;53.364;-1.504;2022-11-20T14:25:21;7.57;;;1.70;;
24409;SDS011;12543;53.364;-1.504;2022-11-20T14:27:51;10.75;;;2.22;;
24409;SDS011;12543;53.364;-1.504;2022-11-20T14:30:30;9.93;;;2.35;;
24409;SDS011;12543;53.364;-1.504;2022-11-20T14:33:13;11.10;;;2.13;;
24409;SDS011;12543;53.364;-1.504;2022-11-20T14:35:45;11.10;;;2.57;;
24409;SDS011;12543;53.364;-1.504;2022-11-20T14:38:15;8.52;;;2.42;;
24409;SDS011;12543;53.364;-1.504;2022-11-20T14:40:45;10.05;;;2.28;;
24409;SDS011;12543;53.364;-1.504;2022-11-20T14:43:22;10.93;;;2.58;;
24409;SDS011;12543;53.364;-1.504;2022-11-20T14:45:59;4.80;;;1.98;;
24409;SDS011;12543;53.364;-1.504;2022-11-20T14:48:31;7.97;;;1.90;;
24409;SDS011;12543;53.364;-1.504;2022-11-20T14:51:04;5.35;;;1.70;;
24409;SDS011;12543;53.364;-1.504;2022-11-20T14:53:31;7.72;;;2.45;;
24409;SDS011;12543;53.364;-1.504;2022-11-20T14:55:59;6.03;;;1.92;;
24409;SDS011;12543;53.364;-1.504;2022-11-20T14:58:28;7.45;;;1.80;;
24409;SDS011;12543;53.364;-1.504;2022-11-20T15:00:59;7.53;;;2.15;;
24409;SDS011;12543;53.364;-1.504;2022-11-20T15:03:33;4.43;;;1.58;;
24409;SDS011;12543;53.364;-1.504;2022-11-20T15:06:06;6.22;;;1.90;;
24409;SDS011;12543;53.364;-1.504;2022-11-20T15:08:34;9.38;;;2.58;;
24409;SDS011;12543;53.364;-1.504;2022-11-20T15:11:02;8.13;;;2.25;;
24409;SDS011;12543;53.364;-1.504;2022-11-20T15:13:30;4.33;;;1.80;;
24409;SDS011;12543;53.364;-1.504;2022-11-20T15:16:00;7.15;;;1.83;;
24409;SDS011;12543;53.364;-1.504;2022-11-20T15:18:37;7.35;;;1.90;;
24409;SDS011;12543;53.364;-1.504;2022-11-20T15:21:23;8.68;;;2.03;;
24409;SDS011;12543;53.364;-1.504;2022-11-20T15:23:51;8.38;;;2.33;;
24409;SDS011;12543;53.364;-1.504;2022-11-20T15:26:20;7.43;;;2.20;;
24409;SDS011;12543;53.364;-1.504;2022-11-20T15:28:53;7.40;;;2.45;;
24409;SDS011;12543;53.364;-1.504;2022-11-20T15:31:21;10.60;;;2.40;;
24409;SDS011;12543;53.364;-1.504;2022-11-20T15:33:49;7.30;;;2.30;;
24409;SDS011;12543;53.364;-1.504;2022-11-20T15:36:17;7.45;;;2.80;;
24409;SDS011;12543;53.364;-1.504;2022-11-20T15:38:44;7.82;;;2.53;;
24409;SDS011;12543;53.364;-1.504;2022-11-20T15:41:11;8.10;;;2.55;;
24409;SDS011;12543;53.364;-1.504;2022-11-20T15:43:38;10.07;;;2.65;;
24409;SDS011;12543;53.364;-1.504;2022-11-20T15:46:13;5.57;;;2.35;;
24409;SDS011;12543;53.364;-1.504;2022-11-20T15:48:42;6.15;;;2.17;;
24409;SDS011;12543;53.364;-1.504;2022-11-20T15:54:19;3.95;;;2.00;;
24409;SDS011;12543;53.364;-1.504;2022-11-20T15:56:49;6.80;;;1.52;;
24409;SDS011;12543;53.364;-1.504;2022-11-20T15:59:20;4.22;;;2.00;;
24409;SDS011;12543;53.364;-1.504;2022-11-20T16:01:46;5.18;;;1.70;;
24409;SDS011;12543;53.364;-1.504;2022-11-20T16:04:15;4.75;;;1.85;;
24409;SDS011;12543;53.364;-1.504;2022-11-20T16:06:43;3.75;;;1.40;;
24409;SDS011;12543;53.364;-1.504;2022-11-20T16:09:10;5.00;;;2.20;;
24409;SDS011;12543;53.364;-1.504;2022-11-20T16:11:37;4.80;;;1.73;;
24409;SDS011;12543;53.364;-1.504;2022-11-20T16:14:04;4.18;;;1.48;;
24409;SDS011;12543;53.364;-1.504;2022-11-20T16:16:51;3.80;;;1.38;;
24409;SDS011;12543;53.364;-1.504;2022-11-20T16:19:18;4.05;;;1.40;;
24409;SDS011;12543;53.364;-1.504;2022-11-20T16:21:46;3.15;;;1.65;;
24409;SDS011;12543;53.364;-1.504;2022-11-20T16:24:13;2.38;;;1.50;;
24409;SDS011;12543;53.364;-1.504;2022-11-20T16:26:41;4.93;;;1.85;;
24409;SDS011;12543;53.364;-1.504;2022-11-20T16:29:08;2.95;;;1.50;;
24409;SDS011;12543;53.364;-1.504;2022-11-20T16:31:36;2.58;;;1.52;;
24409;SDS011;12543;53.364;-1.504;2022-11-20T16:34:04;2.15;;;1.42;;
24409;SDS011;12543;53.364;-1.504;2022-11-20T16:36:41;2.47;;;1.60;;